Time,TemperatureF,DewpointF,PressureIn,WindDirection,WindDirectionDegrees,WindSpeedMPH,WindSpeedGustMPH,Humidity,HourlyPrecipIn,Conditions,Clouds,dailyrainin,SoftwareType,DateUTC
2013-03-04 00:02:00,26.0,15.1,30.13,West,279,4.0,6.0,63,0.00,,SKC,0.00,VWS V12.07,2013-03-04 08:02:00,
2013-03-04 00:12:00,25.7,14.5,30.13,West,276,4.0,7.0,62,0.00,,SKC,0.00,VWS V12.07,2013-03-04 08:12:00,
2013-03-04 00:22:00,25.5,14.7,30.12,West,276,7.0,8.0,63,0.00,,SKC,0.00,VWS V12.07,2013-03-04 08:22:00,
2013-03-04 00:32:00,25.3,14.5,30.13,West,278,5.0,7.0,63,0.00,,SKC,0.00,VWS V12.07,2013-03-04 08:32:00,
2013-03-04 00:42:00,24.8,14.0,30.11,West,278,4.0,7.0,63,0.00,,SKC,0.00,VWS V12.07,2013-03-04 08:42:00,
2013-03-04 00:52:00,24.8,14.0,30.13,West,277,4.0,7.0,63,0.00,,SKC,0.00,VWS V12.07,2013-03-04 08:52:00,
2013-03-04 01:02:00,24.7,13.9,30.13,West,277,2.0,4.0,63,0.00,,SKC,0.00,VWS V12.07,2013-03-04 09:02:00,
2013-03-04 01:12:00,24.8,13.6,30.13,West,277,0.0,5.0,62,0.00,,SKC,0.00,VWS V12.07,2013-03-04 09:12:00,
2013-03-04 01:22:00,24.8,13.6,30.12,West,277,1.0,5.0,62,0.00,,SKC,0.00,VWS V12.07,2013-03-04 09:22:00,
2013-03-04 01:32:00,24.5,13.4,30.12,West,277,2.0,5.0,62,0.00,,SKC,0.00,VWS V12.07,2013-03-04 09:32:00,
2013-03-04 01:42:00,24.0,13.6,30.13,West,277,2.0,5.0,64,0.00,,SKC,0.00,VWS V12.07,2013-03-04 09:42:00,
2013-03-04 01:52:00,24.1,13.7,30.13,West,277,1.0,5.0,64,0.00,,SKC,0.00,VWS V12.07,2013-03-04 09:52:00,
2013-03-04 02:02:00,24.9,13.4,30.12,West,277,2.0,5.0,61,0.00,,SKC,0.00,VWS V12.07,2013-03-04 10:02:00,
2013-03-04 02:12:00,25.3,13.0,30.12,West,277,0.0,5.0,59,0.00,,SKC,0.00,VWS V12.07,2013-03-04 10:12:00,
2013-03-04 02:22:00,25.0,12.3,30.14,West,277,0.0,5.0,58,0.00,,SKC,0.00,VWS V12.07,2013-03-04 10:22:00,
2013-03-04 02:32:00,25.1,12.8,30.12,West,277,2.0,5.0,59,0.00,,SKC,0.00,VWS V12.07,2013-03-04 10:32:00,
2013-03-04 02:42:00,24.3,12.4,30.12,West,270,0.0,7.0,60,0.00,,SKC,0.00,VWS V12.07,2013-03-04 10:42:00,
2013-03-04 02:52:00,23.9,12.4,30.12,West,267,1.0,7.0,61,0.00,,SKC,0.00,VWS V12.07,2013-03-04 10:52:00,
2013-03-04 03:02:00,24.3,12.8,30.13,West,263,0.0,5.0,61,0.00,,SKC,0.00,VWS V12.07,2013-03-04 11:02:00,
2013-03-04 03:12:00,24.1,12.6,30.12,WSW,258,0.0,6.0,61,0.00,,SKC,0.00,VWS V12.07,2013-03-04 11:12:00,
2013-03-04 03:22:00,23.0,11.6,30.11,WSW,238,0.0,6.0,61,0.00,,SKC,0.00,VWS V12.07,2013-03-04 11:22:00,
2013-03-04 03:32:00,23.0,11.9,30.11,WSW,238,0.0,5.0,62,0.00,,SKC,0.00,VWS V12.07,2013-03-04 11:32:00,
2013-03-04 03:42:00,23.1,12.0,30.10,WSW,238,0.0,5.0,62,0.00,,SKC,0.00,VWS V12.07,2013-03-04 11:42:00,
2013-03-04 03:52:00,23.1,12.0,30.10,WSW,238,1.0,5.0,62,0.00,,SKC,0.00,VWS V12.07,2013-03-04 11:52:00,
2013-03-04 04:02:00,23.1,12.0,30.10,WSW,238,0.0,0.0,62,0.00,,SKC,0.00,VWS V12.07,2013-03-04 12:02:00,
2013-03-04 04:12:00,23.1,12.0,30.10,WSW,238,0.0,0.0,62,0.00,,SKC,0.00,VWS V12.07,2013-03-04 12:12:00,
2013-03-04 04:22:00,23.2,12.1,30.10,WSW,238,0.0,0.0,62,0.00,,SKC,0.00,VWS V12.07,2013-03-04 12:22:00,
2013-03-04 04:32:00,19.7,19.7,30.11,North,0,0.0,0.0,100,0.00,,SKC,0.00,VWS V12.07,2013-03-04 12:32:00,
2013-03-04 04:42:00,19.7,19.7,30.10,North,0,0.0,0.0,100,0.00,,SKC,0.00,VWS V12.07,2013-03-04 12:42:00,
2013-03-04 04:52:00,19.7,19.7,30.10,North,0,0.0,0.0,100,0.00,,SKC,0.00,VWS V12.07,2013-03-04 12:52:00,
2013-03-04 05:02:00,19.7,19.7,30.11,North,0,0.0,0.0,100,0.00,,SKC,0.00,VWS V12.07,2013-03-04 13:02:00,
2013-03-04 05:12:00,19.7,19.7,30.11,North,0,0.0,0.0,100,0.00,,SKC,0.00,VWS V12.07,2013-03-04 13:12:00,
2013-03-04 05:22:00,19.7,19.7,30.10,North,0,0.0,0.0,100,0.00,,SKC,0.00,VWS V12.07,2013-03-04 13:22:00,
2013-03-04 05:32:00,19.7,19.7,30.10,North,0,0.0,0.0,100,0.00,,SKC,0.00,VWS V12.07,2013-03-04 13:32:00,
2013-03-04 05:42:00,19.7,19.7,30.10,North,0,0.0,0.0,100,0.00,,SKC,0.00,VWS V12.07,2013-03-04 13:42:00,
2013-03-04 05:52:00,19.7,19.7,30.10,North,0,0.0,0.0,100,0.00,,SKC,0.00,VWS V12.07,2013-03-04 13:52:00,
2013-03-04 06:02:00,19.7,19.7,30.10,North,0,0.0,0.0,100,0.00,,SKC,0.00,VWS V12.07,2013-03-04 14:02:00,
2013-03-04 06:12:00,19.7,19.7,30.10,North,0,0.0,0.0,100,0.00,,SKC,0.00,VWS V12.07,2013-03-04 14:12:00,
2013-03-04 06:22:00,19.7,19.7,30.10,North,0,0.0,0.0,100,0.00,,SKC,0.00,VWS V12.07,2013-03-04 14:22:00,
2013-03-04 06:32:00,19.7,19.7,30.11,North,0,0.0,0.0,100,0.00,,SKC,0.00,VWS V12.07,2013-03-04 14:32:00,
2013-03-04 06:42:00,19.7,19.7,30.10,North,0,1.0,1.0,100,0.00,,SKC,0.00,VWS V12.07,2013-03-04 14:42:00,
2013-03-04 06:52:00,20.5,12.3,30.10,WSW,248,0.0,5.0,70,0.00,,SKC,0.00,VWS V12.07,2013-03-04 14:52:00,
2013-03-04 07:02:00,21.0,12.4,30.11,WSW,248,0.0,4.0,69,0.00,,SKC,0.00,VWS V12.07,2013-03-04 15:02:00,
2013-03-04 07:12:00,21.3,12.4,30.10,WSW,247,3.0,4.0,68,0.00,,SKC,0.00,VWS V12.07,2013-03-04 15:12:00,
2013-03-04 07:22:00,21.3,12.4,30.10,WSW,245,4.0,7.0,68,0.00,,SKC,0.00,VWS V12.07,2013-03-04 15:22:00,
2013-03-04 07:32:00,20.0,11.5,30.08,SSW,212,5.0,7.0,69,0.00,,SKC,0.00,VWS V12.07,2013-03-04 15:32:00,
2013-03-04 07:42:00,20.3,12.4,30.10,SSW,211,4.0,7.0,71,0.00,,SKC,0.00,VWS V12.07,2013-03-04 15:42:00,
2013-03-04 07:52:00,22.4,14.4,30.10,SSW,211,0.0,7.0,71,0.00,,SKC,0.00,VWS V12.07,2013-03-04 15:52:00,
2013-03-04 08:02:00,24.0,15.6,30.10,SSW,211,4.0,4.0,70,0.00,,SKC,0.00,VWS V12.07,2013-03-04 16:02:00,
2013-03-04 08:12:00,25.2,16.1,30.09,NNW,338,4.0,5.0,68,0.00,,SKC,0.00,VWS V12.07,2013-03-04 16:12:00,
2013-03-04 08:22:00,26.1,16.7,30.11,NW,320,5.0,7.0,67,0.00,,SKC,0.00,VWS V12.07,2013-03-04 16:22:00,
2013-03-04 08:32:00,26.9,16.7,30.09,SSW,211,4.0,7.0,65,0.00,,SKC,0.00,VWS V12.07,2013-03-04 16:32:00,
2013-03-04 08:42:00,27.6,16.3,30.10,SSW,209,4.0,7.0,62,0.00,,SKC,0.00,VWS V12.07,2013-03-04 16:42:00,
2013-03-04 08:52:00,28.6,16.9,30.09,SSW,209,3.0,7.0,61,0.00,,SKC,0.00,VWS V12.07,2013-03-04 16:52:00,
2013-03-04 09:02:00,30.0,17.4,30.09,SSW,209,2.0,6.0,59,0.00,,SKC,0.00,VWS V12.07,2013-03-04 17:02:00,
2013-03-04 09:12:00,31.6,17.7,30.08,SSW,208,3.0,7.0,56,0.00,,SKC,0.00,VWS V12.07,2013-03-04 17:12:00,
2013-03-04 09:22:00,31.9,17.6,30.08,SSW,208,3.0,7.0,55,0.00,,SKC,0.00,VWS V12.07,2013-03-04 17:22:00,
2013-03-04 09:32:00,32.2,16.6,30.09,SSW,208,7.0,7.0,52,0.00,,SKC,0.00,VWS V12.07,2013-03-04 17:32:00,
2013-03-04 09:42:00,32.7,16.1,30.07,SSW,197,5.0,9.0,50,0.00,,SKC,0.00,VWS V12.07,2013-03-04 17:42:00,
2013-03-04 09:52:00,33.5,15.4,30.07,SSW,208,5.0,9.0,47,0.00,,SKC,0.00,VWS V12.07,2013-03-04 17:52:00,
2013-03-04 10:02:00,34.0,15.4,30.08,SSW,209,3.0,9.0,46,0.00,,SKC,0.00,VWS V12.07,2013-03-04 18:02:00,
2013-03-04 10:12:00,35.0,15.3,30.07,South,190,4.0,11.0,44,0.00,,SKC,0.00,VWS V12.07,2013-03-04 18:12:00,
2013-03-04 10:22:00,35.4,15.1,30.06,SSW,210,3.0,11.0,43,0.00,,SKC,0.00,VWS V12.07,2013-03-04 18:22:00,
2013-03-04 10:32:00,36.2,14.8,30.07,South,177,3.0,7.0,41,0.00,,SKC,0.00,VWS V12.07,2013-03-04 18:32:00,
2013-03-04 10:42:00,36.8,14.8,30.07,South,175,6.0,9.0,40,0.00,,SKC,0.00,VWS V12.07,2013-03-04 18:42:00,
2013-03-04 10:52:00,36.9,13.7,30.06,SSW,205,2.0,12.0,38,0.00,,SKC,0.00,VWS V12.07,2013-03-04 18:52:00,
2013-03-04 11:02:00,37.3,14.0,30.07,SW,221,10.0,10.0,38,0.00,,SKC,0.00,VWS V12.07,2013-03-04 19:02:00,
2013-03-04 11:12:00,37.8,13.3,30.05,SW,222,4.0,14.0,36,0.00,,SKC,0.00,VWS V12.07,2013-03-04 19:12:00,
2013-03-04 11:22:00,38.4,13.1,30.06,SW,226,5.0,14.0,35,0.00,,SKC,0.00,VWS V12.07,2013-03-04 19:22:00,
2013-03-04 11:32:00,39.1,13.8,30.04,SE,140,1.0,7.0,35,0.00,,SKC,0.00,VWS V12.07,2013-03-04 19:32:00,
2013-03-04 11:42:00,39.7,14.9,30.04,SSW,208,2.0,11.0,36,0.00,,SKC,0.00,VWS V12.07,2013-03-04 19:42:00,
2013-03-04 11:52:00,39.8,15.0,30.04,South,179,3.0,14.0,36,0.00,,SKC,0.00,VWS V12.07,2013-03-04 19:52:00,
2013-03-04 12:02:00,40.5,16.3,30.05,South,180,4.0,9.0,37,0.00,,SKC,0.00,VWS V12.07,2013-03-04 20:02:00,
2013-03-04 12:12:00,41.1,14.9,30.04,SW,214,9.0,10.0,34,0.00,,SKC,0.00,VWS V12.07,2013-03-04 20:12:00,
2013-03-04 12:22:00,40.9,15.4,30.03,SE,143,5.0,14.0,35,0.00,,SKC,0.00,VWS V12.07,2013-03-04 20:22:00,
2013-03-04 12:32:00,42.0,15.0,30.03,SSE,167,8.0,13.0,33,0.00,,SKC,0.00,VWS V12.07,2013-03-04 20:32:00,
2013-03-04 12:42:00,42.6,15.5,30.02,SW,232,3.0,14.0,33,0.00,,SKC,0.00,VWS V12.07,2013-03-04 20:42:00,
2013-03-04 12:52:00,44.1,16.1,30.02,SSE,156,5.0,14.0,32,0.00,,SKC,0.00,VWS V12.07,2013-03-04 20:52:00,
2013-03-04 13:02:00,44.5,17.2,30.01,SW,225,6.0,7.0,33,0.00,,SKC,0.00,VWS V12.07,2013-03-04 21:02:00,
2013-03-04 13:12:00,44.6,15.9,30.00,SSW,211,3.0,14.0,31,0.00,,SKC,0.00,VWS V12.07,2013-03-04 21:12:00,
2013-03-04 13:22:00,45.6,16.7,30.00,SW,229,5.0,14.0,31,0.00,,SKC,0.00,VWS V12.07,2013-03-04 21:22:00,
2013-03-04 13:32:00,45.9,15.4,30.00,SSW,196,2.0,7.0,29,0.00,,SKC,0.00,VWS V12.07,2013-03-04 21:32:00,
2013-03-04 13:42:00,46.2,15.7,29.99,South,191,2.0,12.0,29,0.00,,SKC,0.00,VWS V12.07,2013-03-04 21:42:00,
2013-03-04 13:53:00,46.1,16.4,29.99,NE,35,3.0,12.0,30,0.00,,SKC,0.00,VWS V12.07,2013-03-04 21:53:00,
2013-03-04 14:02:00,46.5,16.0,29.98,SSE,153,2.0,5.0,29,0.00,,SKC,0.00,VWS V12.07,2013-03-04 22:02:00,
2013-03-04 14:12:00,47.8,16.3,29.98,NW,316,1.0,14.0,28,0.00,,SKC,0.00,VWS V12.07,2013-03-04 22:12:00,
2013-03-04 14:22:00,48.5,16.1,29.98,SW,223,2.0,14.0,27,0.00,,SKC,0.00,VWS V12.07,2013-03-04 22:22:00,
2013-03-04 14:32:00,48.9,16.4,29.97,SSW,213,9.0,13.0,27,0.00,,SKC,0.00,VWS V12.07,2013-03-04 22:32:00,
2013-03-04 14:42:00,48.6,16.1,29.98,South,184,7.0,13.0,27,0.00,,SKC,0.00,VWS V12.07,2013-03-04 22:42:00,
2013-03-04 14:52:00,48.7,16.2,29.97,SSW,210,2.0,13.0,27,0.00,,SKC,0.00,VWS V12.07,2013-03-04 22:52:00,
2013-03-04 15:02:00,49.4,16.8,29.97,SSW,203,2.0,4.0,27,0.00,,SKC,0.00,VWS V12.07,2013-03-04 23:02:00,
2013-03-04 15:12:00,49.8,17.2,29.97,SSW,192,2.0,7.0,27,0.00,,SKC,0.00,VWS V12.07,2013-03-04 23:12:00,
2013-03-04 15:22:00,49.1,16.6,29.98,ENE,76,6.0,9.0,27,0.00,,SKC,0.00,VWS V12.07,2013-03-04 23:22:00,
2013-03-04 15:32:00,48.4,16.8,29.97,ENE,72,2.0,5.0,28,0.00,,SKC,0.00,VWS V12.07,2013-03-04 23:32:00,
2013-03-04 15:42:00,48.4,16.0,29.97,East,79,5.0,9.0,27,0.00,,SKC,0.00,VWS V12.07,2013-03-04 23:42:00,
2013-03-04 15:52:00,48.7,16.2,29.96,East,87,2.0,11.0,27,0.00,,SKC,0.00,VWS V12.07,2013-03-04 23:52:00,
2013-03-04 16:02:00,48.7,16.2,29.96,NE,52,7.0,11.0,27,0.00,,SKC,0.00,VWS V12.07,2013-03-05 00:02:00,
2013-03-04 16:12:00,48.7,16.2,29.95,NE,34,10.0,11.0,27,0.00,,SKC,0.00,VWS V12.07,2013-03-05 00:12:00,
2013-03-04 16:22:00,48.5,16.1,29.95,NE,49,5.0,12.0,27,0.00,,SKC,0.00,VWS V12.07,2013-03-05 00:22:00,
2013-03-04 16:32:00,48.8,16.3,29.94,NNE,19,5.0,7.0,27,0.00,,SKC,0.00,VWS V12.07,2013-03-05 00:32:00,
2013-03-04 16:42:00,47.1,18.0,29.95,NNW,342,11.0,19.0,31,0.00,,SKC,0.00,VWS V12.07,2013-03-05 00:42:00,
2013-03-04 16:52:00,46.1,17.9,29.96,NNW,346,7.0,19.0,32,0.00,,SKC,0.00,VWS V12.07,2013-03-05 00:52:00,
2013-03-04 17:02:00,45.6,17.5,29.96,North,349,7.0,12.0,32,0.00,,SKC,0.00,VWS V12.07,2013-03-05 01:02:00,
2013-03-04 17:12:00,45.0,17.6,29.95,NNW,341,9.0,14.0,33,0.00,,SKC,0.00,VWS V12.07,2013-03-05 01:12:00,
2013-03-04 17:22:00,44.5,17.2,29.95,NNW,343,10.0,14.0,33,0.00,,SKC,0.00,VWS V12.07,2013-03-05 01:22:00,
2013-03-04 17:32:00,44.0,17.5,29.95,NNW,348,6.0,9.0,34,0.00,,SKC,0.00,VWS V12.07,2013-03-05 01:32:00,
2013-03-04 17:42:00,43.4,17.6,29.95,NNW,347,7.0,12.0,35,0.00,,SKC,0.00,VWS V12.07,2013-03-05 01:42:00,
2013-03-04 17:52:00,42.5,18.1,29.95,North,355,3.0,12.0,37,0.00,,SKC,0.00,VWS V12.07,2013-03-05 01:52:00,
2013-03-04 18:02:00,41.7,18.0,29.95,NNW,332,4.0,11.0,38,0.00,,SKC,0.00,VWS V12.07,2013-03-05 02:02:00,
2013-03-04 18:12:00,41.0,17.4,29.94,NNW,346,9.0,13.0,38,0.00,,SKC,0.00,VWS V12.07,2013-03-05 02:12:00,
2013-03-04 18:22:00,40.2,17.8,29.94,NNW,342,3.0,13.0,40,0.00,,SKC,0.00,VWS V12.07,2013-03-05 02:22:00,
2013-03-04 18:32:00,39.7,18.0,29.95,NNW,341,5.0,7.0,41,0.00,,SKC,0.00,VWS V12.07,2013-03-05 02:32:00,
2013-03-04 18:42:00,39.1,17.4,29.95,NNW,342,3.0,7.0,41,0.00,,SKC,0.00,VWS V12.07,2013-03-05 02:42:00,
2013-03-04 18:52:00,38.8,17.1,29.95,NNW,344,3.0,7.0,41,0.00,,SKC,0.00,VWS V12.07,2013-03-05 02:52:00,
2013-03-04 19:02:00,38.6,17.0,29.95,North,349,0.0,4.0,41,0.00,,SKC,0.00,VWS V12.07,2013-03-05 03:02:00,
2013-03-04 19:12:00,38.3,16.7,29.95,North,349,2.0,7.0,41,0.00,,SKC,0.00,VWS V12.07,2013-03-05 03:12:00,
2013-03-04 19:22:00,38.0,17.0,29.94,NNW,347,5.0,7.0,42,0.00,,SKC,0.00,VWS V12.07,2013-03-05 03:22:00,
2013-03-04 19:32:00,37.3,16.9,29.96,NNW,327,4.0,5.0,43,0.00,,SKC,0.00,VWS V12.07,2013-03-05 03:32:00,
2013-03-04 19:42:00,37.0,17.1,29.95,NNW,327,0.0,6.0,44,0.00,,SKC,0.00,VWS V12.07,2013-03-05 03:42:00,
2013-03-04 19:52:00,36.7,16.9,29.94,NNW,327,2.0,6.0,44,0.00,,SKC,0.00,VWS V12.07,2013-03-05 03:52:00,
2013-03-04 20:02:00,36.8,16.4,29.96,NW,324,4.0,5.0,43,0.00,,SKC,0.00,VWS V12.07,2013-03-05 04:02:00,
2013-03-04 20:12:00,36.2,16.4,29.95,NW,321,2.0,7.0,44,0.00,,SKC,0.00,VWS V12.07,2013-03-05 04:12:00,
2013-03-04 20:22:00,34.6,16.5,29.95,NW,317,3.0,7.0,47,0.00,,SKC,0.00,VWS V12.07,2013-03-05 04:22:00,
2013-03-04 20:32:00,34.4,17.2,29.94,WNW,297,5.0,7.0,49,0.00,,SKC,0.00,VWS V12.07,2013-03-05 04:32:00,
2013-03-04 20:42:00,35.0,16.8,29.93,WNW,292,3.0,7.0,47,0.00,,SKC,0.00,VWS V12.07,2013-03-05 04:42:00,
2013-03-04 20:52:00,33.4,16.3,29.94,WNW,288,6.0,7.0,49,0.00,,SKC,0.00,VWS V12.07,2013-03-05 04:52:00,
2013-03-04 21:02:00,32.8,16.7,29.93,West,272,4.0,7.0,51,0.00,,SKC,0.00,VWS V12.07,2013-03-05 05:02:00,
2013-03-04 21:12:00,33.1,16.0,29.94,WSW,255,7.0,7.0,49,0.00,,SKC,0.00,VWS V12.07,2013-03-05 05:12:00,
2013-03-04 21:22:00,31.4,16.3,29.94,SW,235,2.0,7.0,53,0.00,,SKC,0.00,VWS V12.07,2013-03-05 05:22:00,
2013-03-04 21:32:00,32.2,16.6,29.93,SW,235,2.0,5.0,52,0.00,,SKC,0.00,VWS V12.07,2013-03-05 05:32:00,
2013-03-04 21:42:00,32.3,16.2,29.93,SW,235,2.0,5.0,51,0.00,,SKC,0.00,VWS V12.07,2013-03-05 05:42:00,
2013-03-04 21:52:00,32.6,16.5,29.93,WSW,242,5.0,7.0,51,0.00,,SKC,0.00,VWS V12.07,2013-03-05 05:52:00,
2013-03-04 22:02:00,33.0,15.9,29.93,WSW,243,4.0,5.0,49,0.00,,SKC,0.00,VWS V12.07,2013-03-05 06:02:00,
2013-03-04 22:12:00,32.5,15.9,29.93,West,264,5.0,8.0,50,0.00,,SKC,0.00,VWS V12.07,2013-03-05 06:12:00,
2013-03-04 22:22:00,32.6,16.0,29.93,West,266,4.0,8.0,50,0.00,,SKC,0.00,VWS V12.07,2013-03-05 06:22:00,
2013-03-04 22:32:00,32.3,15.8,29.93,West,270,7.0,7.0,50,0.00,,SKC,0.00,VWS V12.07,2013-03-05 06:32:00,
2013-03-04 22:42:00,32.2,16.1,29.93,West,277,4.0,8.0,51,0.00,,SKC,0.00,VWS V12.07,2013-03-05 06:42:00,
2013-03-04 22:52:00,31.6,15.6,29.92,West,277,3.0,8.0,51,0.00,,SKC,0.00,VWS V12.07,2013-03-05 06:52:00,
2013-03-04 23:02:00,31.9,15.8,29.92,West,277,5.0,5.0,51,0.00,,SKC,0.00,VWS V12.07,2013-03-05 07:02:00,
2013-03-04 23:12:00,32.3,15.8,29.93,West,277,2.0,5.0,50,0.00,,SKC,0.00,VWS V12.07,2013-03-05 07:12:00,
2013-03-04 23:22:00,32.3,15.8,29.92,West,277,3.0,5.0,50,0.00,,SKC,0.00,VWS V12.07,2013-03-05 07:22:00,
2013-03-04 23:32:00,30.6,15.9,29.91,West,275,4.0,7.0,54,0.00,,SKC,0.00,VWS V12.07,2013-03-05 07:32:00,
2013-03-04 23:42:00,30.7,16.0,29.91,West,275,1.0,7.0,54,0.00,,SKC,0.00,VWS V12.07,2013-03-05 07:42:00,
2013-03-04 23:52:00,30.6,15.9,29.91,West,275,5.0,7.0,54,0.00,,SKC,0.00,VWS V12.07,2013-03-05 07:52:00,